Time;durP1;ratioP1;P1;durP2;ratioP2;P2;SDS_P1;SDS_P2;PMS_P1;PMS_P2;Temp;Humidity;BMP_temperature;BMP_pressure;BME280_temperature;BME280_humidity;BME280_pressure;Samples;Min_cycle;Max_cycle;Signal;HPM_P1;HPM_P2
2021/03/02 12:32:54;;;;;;;35.85;34.35;;;;;;;;;;5090935;28;20885;-70
2021/03/02 12:35:20;;;;;;;40.05;38.45;;;;;;;;;;5090906;28;20573;-71
2021/03/02 12:37:46;;;;;;;42.53;40.67;;;;;;;;;;5090880;28;20167;-71
2021/03/02 12:40:12;;;;;;;46.78;44.83;;;;;;;;;;5090728;28;20202;-71
2021/03/02 12:42:38;;;;;;;52.90;50.42;;;;;;;;;;5090736;28;20172;-71
2021/03/02 12:45:05;;;;;;;50.72;48.42;;;;;;;;;;5089439;28;20586;-71
2021/03/02 12:47:31;;;;;;;54.38;51.88;;;;;;;;;;5089454;28;20179;-71
2021/03/02 12:49:57;;;;;;;51.63;49.45;;;;;;;;;;5090648;28;20641;-71
2021/03/02 12:52:23;;;;;;;50.85;48.75;;;;;;;;;;5090503;28;20196;-71
2021/03/02 12:54:49;;;;;;;52.17;49.78;;;;;;;;;;5089079;28;20274;-71
2021/03/02 12:57:15;;;;;;;55.08;52.72;;;;;;;;;;5090483;28;20171;-71
2021/03/02 12:59:41;;;;;;;57.88;55.35;;;;;;;;;;5090399;28;20168;-71
2021/03/02 13:02:08;;;;;;;56.75;54.28;;;;;;;;;;5090416;28;20641;-71
2021/03/02 13:04:34;;;;;;;48.97;46.92;;;;;;;;;;5089059;28;20174;-71
2021/03/02 13:07:00;;;;;;;51.00;48.75;;;;;;;;;;5090314;28;20187;-71
2021/03/02 13:09:26;;;;;;;47.90;45.88;;;;;;;;;;5090198;28;20510;-71
2021/03/02 13:11:52;;;;;;;52.75;50.47;;;;;;;;;;5090106;28;20202;-71
2021/03/02 13:14:18;;;;;;;54.08;51.28;;;;;;;;;;5088893;28;20643;-71
2021/03/02 13:16:45;;;;;;;51.03;48.63;;;;;;;;;;5090121;28;20228;-71
2021/03/02 13:19:11;;;;;;;53.53;51.17;;;;;;;;;;5090164;28;20213;-71
2021/03/02 13:21:40;;;;;;;54.20;51.90;;;;;;;;;;5089912;28;20203;-71
2021/03/02 13:24:07;;;;;;;58.10;55.20;;;;;;;;;;5089907;28;20269;-71
2021/03/02 13:26:34;;;;;;;56.42;53.95;;;;;;;;;;5089876;28;20168;-71
2021/03/02 13:29:01;;;;;;;54.83;52.35;;;;;;;;;;5088617;28;20179;-71
2021/03/02 13:31:30;;;;;;;56.63;54.15;;;;;;;;;;5089554;28;20306;-71
2021/03/02 13:33:58;;;;;;;54.28;51.90;;;;;;;;;;5089833;28;20641;-71
2021/03/02 13:36:24;;;;;;;53.60;51.15;;;;;;;;;;5089696;28;20176;-71
2021/03/02 13:38:51;;;;;;;55.30;52.55;;;;;;;;;;5089731;28;20190;-71
2021/03/02 13:41:18;;;;;;;56.47;54.03;;;;;;;;;;5089541;28;20196;-71
2021/03/02 13:43:45;;;;;;;58.65;56.08;;;;;;;;;;5077908;28;20176;-71
2021/03/02 13:46:11;;;;;;;59.30;56.50;;;;;;;;;;5076081;28;20516;-71
2021/03/02 13:48:37;;;;;;;59.10;56.45;;;;;;;;;;5076108;28;20184;-71
2021/03/02 13:51:04;;;;;;;55.33;52.90;;;;;;;;;;5074542;28;20173;-71
2021/03/02 13:53:31;;;;;;;57.30;54.65;;;;;;;;;;5076073;28;20164;-71
2021/03/02 13:55:57;;;;;;;58.92;56.25;;;;;;;;;;5075821;28;20254;-71
2021/03/02 13:58:24;;;;;;;58.92;55.70;;;;;;;;;;5075908;28;20251;-71
2021/03/02 14:00:50;;;;;;;61.45;58.67;;;;;;;;;;5075682;28;20641;-71
2021/03/02 14:03:17;;;;;;;55.50;53.17;;;;;;;;;;5075796;28;20221;-71
2021/03/02 14:05:46;;;;;;;58.75;56.15;;;;;;;;;;5075752;28;20633;-71
2021/03/02 14:08:13;;;;;;;60.75;58.00;;;;;;;;;;5075642;28;20648;-71
2021/03/02 14:10:39;;;;;;;62.10;59.35;;;;;;;;;;5075642;28;20168;-71
2021/03/02 14:13:05;;;;;;;65.15;62.15;;;;;;;;;;5075633;28;20253;-71
2021/03/02 14:15:35;;;;;;;67.63;64.60;;;;;;;;;;5075564;28;20164;-72
2021/03/02 14:18:01;;;;;;;64.57;61.67;;;;;;;;;;5075447;28;20165;-71
2021/03/02 14:20:29;;;;;;;73.97;70.63;;;;;;;;;;5075434;28;20164;-72
2021/03/02 14:22:56;;;;;;;72.10;68.45;;;;;;;;;;5075422;28;20176;-71
2021/03/02 14:25:22;;;;;;;75.75;72.28;;;;;;;;;;5075393;28;20171;-71
2021/03/02 14:27:48;;;;;;;74.82;71.53;;;;;;;;;;5075303;28;20177;-72
2021/03/02 14:30:16;;;;;;;76.45;73.13;;;;;;;;;;5075175;28;20164;-71
2021/03/02 14:32:42;;;;;;;78.88;75.18;;;;;;;;;;5074980;28;20216;-71
2021/03/02 14:35:09;;;;;;;76.88;72.57;;;;;;;;;;5075160;28;20221;-71
2021/03/02 14:37:35;;;;;;;81.93;78.18;;;;;;;;;;5075104;28;20199;-71
2021/03/02 14:40:01;;;;;;;85.00;81.03;;;;;;;;;;5075079;28;20510;-71
2021/03/02 14:42:28;;;;;;;87.40;83.43;;;;;;;;;;5074884;28;20204;-72
2021/03/02 14:44:59;;;;;;;91.00;86.55;;;;;;;;;;5074895;28;20171;-72
2021/03/02 14:47:26;;;;;;;103.45;98.80;;;;;;;;;;5074881;28;20210;-72
2021/03/02 14:49:58;;;;;;;106.55;101.80;;;;;;;;;;5074753;28;20168;-72
2021/03/02 14:52:24;;;;;;;108.18;103.38;;;;;;;;;;5074709;28;20310;-71
2021/03/02 14:54:52;;;;;;;108.35;103.43;;;;;;;;;;5073666;28;20270;-72
2021/03/02 14:57:18;;;;;;;109.38;104.38;;;;;;;;;;5074707;28;20618;-71
2021/03/02 14:59:45;;;;;;;113.90;108.65;;;;;;;;;;5073279;28;20545;-72
2021/03/02 15:02:12;;;;;;;116.45;111.10;;;;;;;;;;5074497;28;20196;-72
2021/03/02 15:04:38;;;;;;;121.05;115.60;;;;;;;;;;5074390;28;20218;-71
2021/03/02 15:07:04;;;;;;;112.40;107.28;;;;;;;;;;5074514;28;20171;-71
2021/03/02 15:09:30;;;;;;;106.60;101.90;;;;;;;;;;5074439;28;20187;-72
2021/03/02 15:11:57;;;;;;;104.90;100.22;;;;;;;;;;5074481;28;20172;-71
2021/03/02 15:14:28;;;;;;;105.38;100.57;;;;;;;;;;5074251;28;20176;-72
2021/03/02 15:16:55;;;;;;;111.57;106.63;;;;;;;;;;5073012;28;20556;-71
2021/03/02 15:19:21;;;;;;;106.40;101.53;;;;;;;;;;5074182;28;20594;-72
2021/03/02 15:21:47;;;;;;;108.45;103.60;;;;;;;;;;5074141;28;20605;-72
2021/03/02 15:24:18;;;;;;;117.32;112.00;;;;;;;;;;5072810;28;20721;-72
2021/03/02 15:26:45;;;;;;;112.25;107.13;;;;;;;;;;5072733;28;20195;-72
2021/03/02 15:29:12;;;;;;;108.00;103.07;;;;;;;;;;5074143;28;20191;-72
2021/03/02 15:31:38;;;;;;;110.78;105.60;;;;;;;;;;5073995;28;20211;-71
2021/03/02 15:34:05;;;;;;;109.78;104.88;;;;;;;;;;5073971;28;20171;-72
2021/03/02 15:36:31;;;;;;;107.35;102.57;;;;;;;;;;5072663;28;20195;-72
2021/03/02 15:38:58;;;;;;;105.10;100.43;;;;;;;;;;5073948;28;20621;-72
2021/03/02 15:41:24;;;;;;;117.45;112.20;;;;;;;;;;5073766;28;20750;-71
2021/03/02 15:43:50;;;;;;;111.75;106.80;;;;;;;;;;5073869;28;20200;-72
2021/03/02 15:46:16;;;;;;;109.63;104.53;;;;;;;;;;5072400;28;20172;-72
2021/03/02 15:48:43;;;;;;;111.63;106.60;;;;;;;;;;5073685;28;20247;-71
2021/03/02 15:51:09;;;;;;;112.95;107.80;;;;;;;;;;5073718;28;20168;-72
2021/03/02 15:53:36;;;;;;;106.07;101.22;;;;;;;;;;5073632;28;20164;-71
2021/03/02 15:56:02;;;;;;;108.40;103.57;;;;;;;;;;5072258;28;20239;-71
2021/03/02 15:58:28;;;;;;;112.43;107.13;;;;;;;;;;5073601;28;20203;-72
2021/03/02 16:00:54;;;;;;;102.95;98.28;;;;;;;;;;5073493;28;20198;-71
2021/03/02 16:03:20;;;;;;;105.00;100.13;;;;;;;;;;5072288;28;20176;-71
2021/03/02 16:05:47;;;;;;;103.95;99.20;;;;;;;;;;5073337;28;20164;-71
2021/03/02 16:08:13;;;;;;;101.60;97.03;;;;;;;;;;5073534;28;20266;-71
2021/03/02 16:10:43;;;;;;;99.82;95.25;;;;;;;;;;5073390;28;20191;-71
2021/03/02 16:13:09;;;;;;;104.13;99.45;;;;;;;;;;5073469;28;20310;-71
2021/03/02 16:15:41;;;;;;;106.05;101.15;;;;;;;;;;5073448;28;20175;-71
2021/03/02 16:18:09;;;;;;;110.50;105.47;;;;;;;;;;5073433;28;20164;-71
2021/03/02 16:20:36;;;;;;;109.55;104.60;;;;;;;;;;5072062;28;20629;-71
2021/03/02 16:23:06;;;;;;;109.50;103.63;;;;;;;;;;5073291;28;20164;-72
2021/03/02 16:25:33;;;;;;;111.22;106.30;;;;;;;;;;5073304;28;20251;-71
2021/03/02 16:28:00;;;;;;;107.07;101.95;;;;;;;;;;5073308;28;20648;-71
2021/03/02 16:30:27;;;;;;;116.85;111.50;;;;;;;;;;5073257;28;20564;-71
2021/03/02 16:32:53;;;;;;;111.65;106.60;;;;;;;;;;5073226;28;20535;-71
2021/03/02 16:35:19;;;;;;;109.00;104.05;;;;;;;;;;5073213;28;20218;-71
2021/03/02 16:37:45;;;;;;;111.25;106.15;;;;;;;;;;5073214;28;20258;-71
2021/03/02 16:40:15;;;;;;;107.18;102.07;;;;;;;;;;5073238;28;20202;-71
2021/03/02 16:42:43;;;;;;;101.53;97.07;;;;;;;;;;5073140;28;20540;-71
2021/03/02 16:45:10;;;;;;;95.40;91.03;;;;;;;;;;5073108;28;20188;-71
2021/03/02 16:47:36;;;;;;;90.65;86.60;;;;;;;;;;5073170;28;20172;-71
